createdAt,value
2023-05-03T00:01:09.486Z,1.87
2023-05-03T00:03:39.486Z,1.70
2023-05-03T00:06:17.337Z,1.60
2023-05-03T00:08:47.140Z,1.40
2023-05-03T00:11:15.989Z,1.60
2023-05-03T00:13:44.501Z,1.50
2023-05-03T00:16:12.989Z,1.53
2023-05-03T00:18:41.406Z,1.60
2023-05-03T00:21:09.839Z,1.30
2023-05-03T00:23:38.250Z,1.57
2023-05-03T00:26:08.069Z,1.50
2023-05-03T00:28:36.512Z,1.40
2023-05-03T00:31:11.399Z,1.40
2023-05-03T00:33:40.803Z,1.60
2023-05-03T00:36:10.123Z,1.27
2023-05-03T00:38:38.582Z,1.37
2023-05-03T00:41:08.917Z,1.20
2023-05-03T00:43:38.064Z,1.30
2023-05-03T00:46:16.953Z,1.20
2023-05-03T00:48:46.418Z,1.30
2023-05-03T00:51:16.096Z,1.40
2023-05-03T00:53:44.750Z,1.20
2023-05-03T00:56:19.463Z,1.27
2023-05-03T00:58:47.839Z,1.30
2023-05-03T01:01:16.660Z,1.10
2023-05-03T01:03:46.759Z,1.23
2023-05-03T01:06:18.581Z,1.20
2023-05-03T01:08:50.418Z,1.10
2023-05-03T01:11:24.661Z,1.20
2023-05-03T01:13:56.882Z,1.27
2023-05-03T01:16:28.808Z,1.20
2023-05-03T01:19:01.526Z,1.30
2023-05-03T01:21:30.973Z,1.10
2023-05-03T01:24:02.028Z,1.00
2023-05-03T01:26:33.388Z,1.20
2023-05-03T01:29:01.805Z,1.07
2023-05-03T01:31:31.727Z,1.10
2023-05-03T01:34:07.052Z,1.20
2023-05-03T01:36:36.314Z,1.10
2023-05-03T01:39:07.793Z,1.20
2023-05-03T01:41:38.061Z,1.30
2023-05-03T01:44:07.125Z,1.00
2023-05-03T01:46:35.550Z,1.00
2023-05-03T01:49:03.968Z,1.10
2023-05-03T01:51:32.346Z,1.20
2023-05-03T01:54:01.061Z,1.10
2023-05-03T01:56:29.516Z,1.20
2023-05-03T01:58:59.324Z,1.20
2023-05-03T02:01:27.801Z,1.20
2023-05-03T02:03:56.618Z,1.00
2023-05-03T02:06:26.219Z,1.10
2023-05-03T02:08:54.770Z,1.30
2023-05-03T02:11:23.255Z,0.97
2023-05-03T02:13:51.734Z,1.07
2023-05-03T02:16:21.577Z,1.03
2023-05-03T02:18:49.998Z,1.17
2023-05-03T02:21:18.396Z,1.17
2023-05-03T02:23:47.013Z,1.23
2023-05-03T02:26:15.455Z,1.17
2023-05-03T02:28:43.879Z,1.10
2023-05-03T02:31:13.605Z,1.10
2023-05-03T02:33:43.578Z,1.20
2023-05-03T02:36:11.977Z,1.10
2023-05-03T02:38:40.439Z,1.30
2023-05-03T02:41:08.857Z,1.30
2023-05-03T02:43:37.496Z,1.10
2023-05-03T02:46:05.986Z,1.20
2023-05-03T02:48:34.444Z,1.13
2023-05-03T02:51:04.435Z,1.20
2023-05-03T02:53:32.836Z,1.30
2023-05-03T02:56:01.246Z,1.30
2023-05-03T02:58:29.737Z,1.37
2023-05-03T03:00:58.148Z,1.20
2023-05-03T03:03:26.877Z,1.20
2023-05-03T03:05:55.371Z,1.20
2023-05-03T03:08:25.173Z,1.27
2023-05-03T03:10:53.671Z,1.33
2023-05-03T03:13:22.129Z,1.17
2023-05-03T03:15:50.637Z,1.20
2023-05-03T03:18:19.812Z,1.10
2023-05-03T03:20:48.340Z,1.20
2023-05-03T03:23:16.755Z,1.10
2023-05-03T03:25:46.602Z,1.23
2023-05-03T03:28:14.990Z,1.30
2023-05-03T03:30:43.785Z,1.30
2023-05-03T03:33:12.665Z,1.10
2023-05-03T03:35:41.338Z,1.33
2023-05-03T03:38:09.748Z,1.33
2023-05-03T03:40:38.145Z,1.50
2023-05-03T03:43:07.931Z,1.70
2023-05-03T03:45:36.335Z,2.10
2023-05-03T03:48:04.874Z,2.10
2023-05-03T03:50:34.185Z,2.57
2023-05-03T03:53:02.721Z,2.90
2023-05-03T03:55:31.327Z,2.90
2023-05-03T03:58:00.233Z,2.93
2023-05-03T04:00:30.162Z,2.93
2023-05-03T04:02:58.747Z,3.20
2023-05-03T04:05:27.726Z,3.40
2023-05-03T04:07:56.119Z,3.00
2023-05-03T04:10:24.559Z,3.00
2023-05-03T04:12:52.979Z,3.00
2023-05-03T04:15:21.652Z,3.00
2023-05-03T04:17:51.727Z,3.00
2023-05-03T04:20:21.550Z,2.93
2023-05-03T04:22:49.992Z,2.90
2023-05-03T04:25:18.463Z,2.60
2023-05-03T04:27:47.019Z,2.50
2023-05-03T04:30:17.561Z,2.77
2023-05-03T04:32:47.389Z,2.40
2023-05-03T04:35:19.191Z,2.30
2023-05-03T04:37:47.596Z,2.53
2023-05-03T04:40:17.284Z,2.50
2023-05-03T04:42:45.727Z,2.53
2023-05-03T04:45:14.654Z,2.50
2023-05-03T04:47:43.265Z,2.30
2023-05-03T04:50:12.317Z,2.50
2023-05-03T04:52:42.162Z,2.50
2023-05-03T04:55:11.309Z,2.70
2023-05-03T04:57:39.744Z,2.50
2023-05-03T05:00:11.195Z,2.60
2023-05-03T05:02:39.864Z,2.80
2023-05-03T05:05:09.386Z,2.83
2023-05-03T05:07:37.817Z,3.70
2023-05-03T05:10:09.078Z,3.30
2023-05-03T05:12:37.543Z,3.70
2023-05-03T05:15:06.369Z,3.43
2023-05-03T05:17:35.083Z,3.33
2023-05-03T05:20:07.178Z,3.17
2023-05-03T05:22:35.844Z,3.07
2023-05-03T05:25:04.282Z,3.70
2023-05-03T05:27:34.087Z,3.07
2023-05-03T05:30:03.030Z,2.87
2023-05-03T05:32:31.726Z,2.87
2023-05-03T05:35:00.145Z,2.60
2023-05-03T05:37:28.684Z,2.20
2023-05-03T05:39:57.223Z,2.07
2023-05-03T05:42:26.247Z,2.30
2023-05-03T05:44:57.340Z,2.07
2023-05-03T05:47:26.013Z,1.80
2023-05-03T05:49:54.628Z,2.00
2023-05-03T05:52:23.125Z,2.20
2023-05-03T05:54:51.654Z,1.80
2023-05-03T05:57:20.066Z,2.10
2023-05-03T05:59:48.469Z,2.00
2023-05-03T06:02:18.805Z,1.90
2023-05-03T06:04:47.868Z,1.87
2023-05-03T06:07:16.687Z,1.97
2023-05-03T06:09:45.164Z,1.80
2023-05-03T06:12:13.547Z,2.00
2023-05-03T06:14:51.703Z,1.80
2023-05-03T06:17:31.142Z,1.60
2023-05-03T06:19:59.635Z,2.00
2023-05-03T06:22:28.036Z,1.87
2023-05-03T06:24:57.132Z,1.90
2023-05-03T06:27:25.900Z,1.80
2023-05-03T06:29:54.479Z,2.20
2023-05-03T06:32:23.470Z,1.90
2023-05-03T06:34:53.645Z,2.00
2023-05-03T06:37:22.665Z,2.00
2023-05-03T06:39:51.539Z,1.70
2023-05-03T06:42:20.096Z,1.80
2023-05-03T06:44:49.304Z,1.70
2023-05-03T06:47:20.307Z,1.63
2023-05-03T06:49:48.757Z,1.47
2023-05-03T06:52:18.557Z,1.30
2023-05-03T06:54:46.995Z,1.60
2023-05-03T06:57:15.410Z,1.30
2023-05-03T06:59:43.887Z,1.33
2023-05-03T07:02:12.388Z,1.30
2023-05-03T07:04:40.835Z,1.33
2023-05-03T07:07:09.288Z,1.60
2023-05-03T07:09:43.294Z,1.33
2023-05-03T07:12:12.483Z,1.40
2023-05-03T07:14:41.141Z,1.70
2023-05-03T07:17:09.605Z,1.60
2023-05-03T07:19:38.362Z,1.50
2023-05-03T07:22:07.207Z,1.60
2023-05-03T07:24:35.650Z,1.20
2023-05-03T07:27:05.478Z,1.50
2023-05-03T07:29:33.940Z,1.53
2023-05-03T07:32:03.689Z,1.67
2023-05-03T07:34:32.787Z,1.83
2023-05-03T07:37:01.495Z,1.40
2023-05-03T07:39:31.104Z,1.50
2023-05-03T07:41:59.480Z,1.50
2023-05-03T07:44:29.284Z,1.20
2023-05-03T07:46:58.005Z,1.70
2023-05-03T07:49:26.454Z,1.50
2023-05-03T07:51:54.939Z,1.50
2023-05-03T07:54:23.332Z,1.60
2023-05-03T07:56:53.278Z,1.50
2023-05-03T07:59:22.800Z,1.45
2023-05-03T08:01:52.699Z,1.40
2023-05-03T08:04:21.422Z,1.08
2023-05-03T08:06:50.251Z,1.60
2023-05-03T08:09:18.862Z,1.50
2023-05-03T08:11:47.282Z,1.40
2023-05-03T08:14:15.722Z,1.70
2023-05-03T08:16:44.100Z,1.30
2023-05-03T08:19:13.889Z,1.27
2023-05-03T08:21:43.195Z,1.60
2023-05-03T08:24:16.028Z,1.60
2023-05-03T08:26:46.692Z,1.47
2023-05-03T08:29:15.184Z,1.60
2023-05-03T08:31:43.751Z,1.60
2023-05-03T08:34:13.226Z,1.20
2023-05-03T08:36:43.074Z,1.42
2023-05-03T08:39:11.593Z,1.70
2023-05-03T08:41:41.527Z,2.80
2023-05-03T08:44:12.870Z,2.60
2023-05-03T08:46:41.346Z,3.05
2023-05-03T08:49:09.864Z,4.10
2023-05-03T08:51:42.128Z,5.90
2023-05-03T08:54:11.946Z,4.03
2023-05-03T08:56:42.056Z,4.32
2023-05-03T08:59:10.725Z,6.78
2023-05-03T09:01:39.891Z,7.55
2023-05-03T09:04:09.458Z,9.35
2023-05-03T09:06:38.546Z,12.02
2023-05-03T09:09:08.852Z,5.78
2023-05-03T09:11:39.526Z,9.52
2023-05-03T09:14:12.355Z,14.18
2023-05-03T09:16:41.977Z,16.80
2023-05-03T09:19:12.410Z,17.75
2023-05-03T09:21:41.029Z,14.98
2023-05-03T09:24:16.025Z,17.42
2023-05-03T09:26:46.655Z,17.92
2023-05-03T09:29:30.146Z,16.52
2023-05-03T09:32:02.810Z,14.30
2023-05-03T09:34:31.805Z,19.27
2023-05-03T09:37:00.292Z,19.50
2023-05-03T09:39:29.489Z,17.75
2023-05-03T09:42:00.368Z,19.58
2023-05-03T09:44:42.362Z,17.08
2023-05-03T09:47:11.355Z,18.63
2023-05-03T09:49:40.419Z,19.17
2023-05-03T09:52:10.498Z,20.88
2023-05-03T09:54:39.058Z,21.33
2023-05-03T09:57:10.321Z,20.92
2023-05-03T09:59:39.588Z,20.90
2023-05-03T10:02:08.905Z,19.85
2023-05-03T10:04:49.515Z,18.23
2023-05-03T10:07:19.688Z,18.33
2023-05-03T10:09:49.143Z,18.52
2023-05-03T10:12:19.634Z,18.08
2023-05-03T10:14:48.912Z,19.30
2023-05-03T10:17:22.286Z,20.63
2023-05-03T10:19:53.970Z,19.35
2023-05-03T10:22:22.400Z,21.48
2023-05-03T10:25:08.616Z,21.05
2023-05-03T10:27:44.778Z,23.88
2023-05-03T10:30:29.264Z,30.15
2023-05-03T10:32:57.832Z,28.05
2023-05-03T10:35:28.340Z,15.82
2023-05-03T10:37:57.768Z,16.85
2023-05-03T10:40:26.255Z,26.25
2023-05-03T10:42:58.623Z,27.15
2023-05-03T10:45:28.449Z,32.53
2023-05-03T10:48:16.565Z,36.42
2023-05-03T10:50:45.036Z,22.17
2023-05-03T10:53:33.846Z,22.05
2023-05-03T10:56:04.975Z,37.13
2023-05-03T10:58:37.334Z,43.10
2023-05-03T11:01:06.826Z,47.90
2023-05-03T11:03:45.715Z,52.17
2023-05-03T11:06:28.739Z,41.22
2023-05-03T11:08:57.202Z,27.95
2023-05-03T11:11:25.710Z,32.25
2023-05-03T11:13:56.058Z,32.25
2023-05-03T11:16:24.874Z,40.38
2023-05-03T11:18:53.359Z,43.03
2023-05-03T11:21:22.389Z,32.03
2023-05-03T11:23:51.431Z,17.42
2023-05-03T11:26:23.677Z,11.10
2023-05-03T11:28:52.116Z,32.00
2023-05-03T11:31:23.027Z,47.15
2023-05-03T11:33:51.702Z,14.75
2023-05-03T11:36:20.218Z,20.45
2023-05-03T11:38:48.667Z,40.38
2023-05-03T11:41:18.104Z,43.10
2023-05-03T11:43:47.190Z,47.05
2023-05-03T11:46:16.280Z,49.80
2023-05-03T11:48:47.068Z,45.40
2023-05-03T11:51:15.554Z,49.20
2023-05-03T11:53:44.035Z,45.55
2023-05-03T11:56:15.474Z,36.20
2023-05-03T11:58:56.093Z,38.55
2023-05-03T12:01:25.411Z,41.42
2023-05-03T12:03:59.835Z,38.58
2023-05-03T12:06:29.945Z,20.98
2023-05-03T12:08:59.632Z,26.33
2023-05-03T12:11:31.284Z,24.02
2023-05-03T12:14:02.357Z,30.25
2023-05-03T12:16:47.364Z,25.50
2023-05-03T12:19:25.408Z,22.48
2023-05-03T12:22:13.288Z,15.77
2023-05-03T12:24:45.167Z,13.73
2023-05-03T12:27:14.406Z,18.00
2023-05-03T12:29:46.946Z,14.35
2023-05-03T12:32:16.562Z,13.00
2023-05-03T12:34:47.242Z,13.63
2023-05-03T12:37:17.269Z,10.45
2023-05-03T12:39:52.148Z,9.40
2023-05-03T12:42:28.739Z,11.73
2023-05-03T12:44:58.825Z,13.85
2023-05-03T12:47:29.230Z,7.30
2023-05-03T12:50:00.101Z,6.55
2023-05-03T12:55:03.187Z,10.90
2023-05-03T12:57:35.429Z,11.70
2023-05-03T13:00:12.355Z,8.55
2023-05-03T13:03:19.644Z,9.55
2023-05-03T13:05:35.960Z,8.77
2023-05-03T13:10:37.129Z,20.25
2023-05-03T13:13:05.584Z,20.92
2023-05-03T13:15:34.111Z,23.20
2023-05-03T13:18:04.915Z,24.10
2023-05-03T13:20:35.136Z,25.65
2023-05-03T13:23:04.143Z,26.23
2023-05-03T13:25:32.578Z,19.50
2023-05-03T13:28:02.095Z,16.30
2023-05-03T13:30:30.707Z,22.40
2023-05-03T13:32:59.191Z,13.48
2023-05-03T13:35:27.639Z,17.20
2023-05-03T13:37:57.855Z,23.00
2023-05-03T13:40:26.849Z,24.70
2023-05-03T13:42:55.317Z,32.17
2023-05-03T13:45:23.751Z,27.20
2023-05-03T13:48:10.177Z,30.08
2023-05-03T13:50:40.594Z,33.35
2023-05-03T13:53:10.429Z,29.40
2023-05-03T13:55:38.818Z,27.95
2023-05-03T13:58:07.234Z,26.10
2023-05-03T14:00:35.725Z,34.75
2023-05-03T14:03:04.280Z,20.00
2023-05-03T14:05:32.739Z,27.52
2023-05-03T14:08:01.147Z,26.35
2023-05-03T14:10:31.169Z,35.30
2023-05-03T14:13:00.383Z,25.63
2023-05-03T14:15:29.007Z,25.02
2023-05-03T14:18:00.619Z,24.10
2023-05-03T14:20:30.609Z,22.42
2023-05-03T14:22:59.003Z,25.30
2023-05-03T14:25:28.038Z,24.33
2023-05-03T14:27:57.908Z,16.75
2023-05-03T14:30:26.481Z,28.98
2023-05-03T14:32:54.952Z,24.60
2023-05-03T14:35:23.530Z,22.63
2023-05-03T14:37:52.088Z,24.95
2023-05-03T14:40:20.699Z,30.33
2023-05-03T14:42:50.104Z,26.83
2023-05-03T14:45:20.041Z,35.60
2023-05-03T14:47:48.476Z,33.97
2023-05-03T14:50:17.294Z,35.35
2023-05-03T14:52:45.757Z,38.45
2023-05-03T14:55:14.335Z,41.95
2023-05-03T14:57:42.948Z,38.10
2023-05-03T15:00:14.492Z,43.00
2023-05-03T15:02:44.546Z,41.80
2023-05-03T15:05:13.063Z,23.67
2023-05-03T15:07:41.769Z,24.38
2023-05-03T15:10:10.735Z,26.00
2023-05-03T15:12:40.049Z,26.50
2023-05-03T15:15:09.641Z,26.42
2023-05-03T15:17:38.109Z,31.55
2023-05-03T15:20:10.282Z,26.00
2023-05-03T15:22:38.692Z,21.27
2023-05-03T15:25:07.422Z,23.63
2023-05-03T15:27:35.838Z,18.08
2023-05-03T15:30:04.919Z,16.23
2023-05-03T15:32:33.559Z,19.52
2023-05-03T15:35:01.998Z,16.98
2023-05-03T15:37:37.130Z,19.02
2023-05-03T15:40:06.445Z,16.42
2023-05-03T15:42:35.091Z,19.02
2023-05-03T15:45:03.586Z,14.32
2023-05-03T15:47:32.028Z,19.83
2023-05-03T15:50:00.596Z,23.33
2023-05-03T15:52:29.239Z,23.02
2023-05-03T15:54:59.046Z,22.30
2023-05-03T15:57:28.080Z,24.42
2023-05-03T15:59:57.406Z,22.80
2023-05-03T16:02:25.989Z,17.98
2023-05-03T16:04:54.401Z,16.02
2023-05-03T16:07:22.862Z,15.70
2023-05-03T16:09:51.835Z,16.20
2023-05-03T16:12:21.894Z,22.88
2023-05-03T16:14:50.701Z,20.88
2023-05-03T16:17:19.198Z,20.45
2023-05-03T16:19:47.636Z,22.20
2023-05-03T16:22:16.936Z,18.83
2023-05-03T16:24:46.884Z,19.50
2023-05-03T16:27:15.306Z,17.40
2023-05-03T16:29:45.233Z,19.35
2023-05-03T16:32:13.692Z,17.60
2023-05-03T16:34:42.281Z,15.93
2023-05-03T16:37:10.793Z,14.45
2023-05-03T16:39:39.497Z,17.08
2023-05-03T16:42:08.453Z,17.33
2023-05-03T16:44:38.039Z,17.83
2023-05-03T16:47:07.947Z,11.70
2023-05-03T16:49:36.617Z,12.40
2023-05-03T16:52:05.148Z,12.00
2023-05-03T16:54:33.575Z,10.73
2023-05-03T16:57:02.191Z,8.48
2023-05-03T16:59:31.213Z,6.70
2023-05-03T17:01:59.636Z,5.32
2023-05-03T17:04:29.736Z,3.50
2023-05-03T17:06:58.509Z,2.65
2023-05-03T17:09:27.057Z,1.90
2023-05-03T17:11:55.550Z,1.40
2023-05-03T17:14:24.002Z,1.52
2023-05-03T17:16:52.600Z,1.60
2023-05-03T17:19:21.237Z,1.50
2023-05-03T17:21:51.073Z,1.50
2023-05-03T17:24:19.610Z,1.48
2023-05-03T17:26:48.014Z,1.60
2023-05-03T17:29:16.808Z,1.50
2023-05-03T17:31:45.331Z,1.77
2023-05-03T17:34:13.759Z,1.70
2023-05-03T17:36:42.190Z,1.55
2023-05-03T17:39:11.987Z,1.63
2023-05-03T17:41:40.594Z,1.80
2023-05-03T17:44:09.051Z,2.00
2023-05-03T17:46:38.276Z,1.90
2023-05-03T17:49:07.080Z,2.00
2023-05-03T17:51:35.573Z,1.70
2023-05-03T17:54:03.991Z,1.90
2023-05-03T17:56:33.806Z,2.20
2023-05-03T17:59:02.421Z,2.00
2023-05-03T18:01:30.901Z,2.03
2023-05-03T18:03:59.494Z,1.90
2023-05-03T18:06:28.113Z,1.90
2023-05-03T18:08:56.529Z,1.85
2023-05-03T18:11:24.960Z,2.10
2023-05-03T18:13:55.061Z,1.90
2023-05-03T18:16:23.510Z,1.80
2023-05-03T18:18:52.964Z,1.80
2023-05-03T18:21:23.543Z,1.80
2023-05-03T18:23:52.212Z,2.10
2023-05-03T18:26:20.620Z,2.03
2023-05-03T18:28:49.419Z,2.45
2023-05-03T18:31:21.398Z,2.30
2023-05-03T18:33:49.957Z,2.15
2023-05-03T18:36:18.863Z,1.92
2023-05-03T18:38:48.621Z,2.13
2023-05-03T18:41:17.559Z,2.20
2023-05-03T18:43:46.511Z,2.00
2023-05-03T18:46:18.744Z,2.60
2023-05-03T18:48:48.903Z,2.30
2023-05-03T18:51:17.392Z,2.10
2023-05-03T18:53:45.789Z,2.00
2023-05-03T18:56:14.472Z,2.07
2023-05-03T18:58:42.934Z,2.23
2023-05-03T19:01:11.596Z,2.13
2023-05-03T19:03:40.317Z,2.47
2023-05-03T19:06:11.382Z,2.17
2023-05-03T19:08:41.455Z,2.40
2023-05-03T19:11:10.016Z,2.60
2023-05-03T19:13:39.148Z,3.08
2023-05-03T19:16:07.933Z,2.92
2023-05-03T19:18:37.162Z,3.17
2023-05-03T19:21:05.924Z,2.80
2023-05-03T19:23:36.270Z,2.70
2023-05-03T19:26:04.728Z,2.40
2023-05-03T19:28:33.123Z,2.40
2023-05-03T19:31:04.450Z,2.60
2023-05-03T19:33:33.274Z,2.50
2023-05-03T19:36:06.326Z,2.17
2023-05-03T19:38:36.809Z,2.73
2023-05-03T19:41:08.265Z,3.00
2023-05-03T19:43:36.844Z,2.85
2023-05-03T19:46:05.398Z,3.00
2023-05-03T19:48:34.244Z,3.33
2023-05-03T19:51:02.803Z,3.60
2023-05-03T19:53:31.439Z,3.50
2023-05-03T19:56:01.931Z,3.53
2023-05-03T19:58:31.753Z,3.73
2023-05-03T20:01:00.603Z,3.80
2023-05-03T20:03:29.256Z,3.70
2023-05-03T20:05:57.781Z,3.90
2023-05-03T20:08:26.292Z,3.75
2023-05-03T20:10:55.700Z,3.83
2023-05-03T20:13:27.659Z,4.10
2023-05-03T20:15:56.393Z,4.05
2023-05-03T20:18:24.858Z,3.90
2023-05-03T20:20:53.294Z,4.18
2023-05-03T20:23:22.316Z,4.00
2023-05-03T20:25:50.762Z,4.30
2023-05-03T20:28:19.419Z,4.30
2023-05-03T20:30:49.279Z,4.32
2023-05-03T20:33:17.856Z,4.00
2023-05-03T20:35:46.278Z,4.05
2023-05-03T20:38:15.215Z,4.00
2023-05-03T20:40:43.619Z,4.18
2023-05-03T20:43:12.071Z,4.00
2023-05-03T20:45:40.538Z,3.92
2023-05-03T20:48:10.410Z,4.20
2023-05-03T20:50:38.929Z,4.57
2023-05-03T20:53:07.507Z,4.20
2023-05-03T20:55:35.930Z,4.40
2023-05-03T20:58:04.679Z,4.97
2023-05-03T21:00:33.129Z,5.10
2023-05-03T21:03:01.669Z,5.45
2023-05-03T21:05:31.665Z,5.10
2023-05-03T21:08:00.155Z,5.35
2023-05-03T21:10:28.619Z,4.90
2023-05-03T21:12:57.033Z,5.18
2023-05-03T21:15:25.561Z,4.80
2023-05-03T21:17:54.391Z,5.05
2023-05-03T21:20:22.894Z,4.85
2023-05-03T21:22:52.719Z,5.38
2023-05-03T21:25:21.129Z,5.75
2023-05-03T21:27:49.576Z,5.40
2023-05-03T21:30:20.481Z,6.00
2023-05-03T21:32:49.798Z,5.60
2023-05-03T21:35:18.417Z,5.77
2023-05-03T21:37:47.482Z,5.57
2023-05-03T21:40:17.716Z,5.68
2023-05-03T21:42:46.163Z,6.10
2023-05-03T21:45:16.615Z,6.40
2023-05-03T21:47:45.192Z,6.30
2023-05-03T21:50:14.138Z,5.90
2023-05-03T21:52:43.084Z,6.50
2023-05-03T21:55:12.234Z,6.25
2023-05-03T21:57:42.020Z,6.30
2023-05-03T22:00:15.200Z,6.17
2023-05-03T22:02:43.678Z,5.77
2023-05-03T22:05:13.161Z,5.90
2023-05-03T22:07:41.683Z,5.93
2023-05-03T22:10:10.718Z,6.37
2023-05-03T22:12:39.275Z,6.90
2023-05-03T22:15:09.765Z,6.90
2023-05-03T22:17:38.216Z,6.23
2023-05-03T22:20:07.542Z,6.00
2023-05-03T22:22:36.438Z,6.17
2023-05-03T22:25:04.930Z,5.87
2023-05-03T22:27:33.345Z,6.43
2023-05-03T22:30:01.907Z,6.00
2023-05-03T22:32:32.439Z,5.93
2023-05-03T22:35:00.851Z,5.83
2023-05-03T22:37:29.386Z,6.63
2023-05-03T22:39:57.836Z,6.23
2023-05-03T22:42:26.278Z,6.07
2023-05-03T22:44:55.839Z,6.10
2023-05-03T22:47:25.971Z,5.80
2023-05-03T22:49:55.982Z,6.47
2023-05-03T22:52:24.387Z,6.33
2023-05-03T22:54:57.100Z,6.73
2023-05-03T22:57:25.521Z,6.67
2023-05-03T22:59:53.933Z,6.00
2023-05-03T23:02:22.673Z,6.40
2023-05-03T23:04:51.196Z,6.80
2023-05-03T23:07:21.029Z,6.17
2023-05-03T23:09:49.764Z,5.63
2023-05-03T23:12:18.715Z,5.50
2023-05-03T23:14:47.160Z,5.73
2023-05-03T23:17:15.635Z,6.00
2023-05-03T23:19:44.058Z,6.13
2023-05-03T23:22:12.453Z,5.97
2023-05-03T23:24:42.269Z,5.50
2023-05-03T23:27:12.595Z,5.60
2023-05-03T23:29:41.672Z,5.90
2023-05-03T23:32:11.040Z,6.17
2023-05-03T23:34:40.276Z,6.23
2023-05-03T23:37:08.684Z,6.17
2023-05-03T23:39:37.281Z,6.33
2023-05-03T23:42:07.147Z,6.13
2023-05-03T23:44:50.492Z,5.80
2023-05-03T23:47:22.834Z,5.97
2023-05-03T23:49:51.342Z,5.30
2023-05-03T23:52:20.520Z,5.90
2023-05-03T23:54:49.097Z,5.67
2023-05-03T23:57:18.930Z,5.23
2023-05-03T23:59:47.327Z,5.53
